Terminal Aerodrome Forecast
Issued by NWS

Home | Current Version | Previous Version | Text Only | Print | Product List | Glossary On
Versions: 1 2 3 4 5 6 7 8 9 10 11 12 13 14 15 16
000
FTUS42 KFFC 042020 AAA
TAFRYY
TAF AMD
KRYY 042020Z 0420/0518 VRB04KT P6SM VCSH SCT050 SCT250
      TEMPO 0420/0423 -TSRA BKN050CB
     FM042300 04003KT P6SM SCT060 SCT250
     FM050500 04003KT P6SM SCT110
     FM051400 08006KT P6SM SCT050=

USA.gov is the U.S. government's official web portal to all federal, state and local government web resources and services.